sensor_id;sensor_type;location;lat;lon;timestamp;pressure;altitude;pressure_sealevel;temperature;humidity
11676;BME280;5894;42.768;23.404;2022-09-09T00:00:19;95862.25;;;18.98;100.00
11676;BME280;5894;42.768;23.404;2022-09-09T00:02:53;95847.09;;;18.87;100.00
11676;BME280;5894;42.768;23.404;2022-09-09T00:05:27;95838.88;;;18.80;100.00
11676;BME280;5894;42.768;23.404;2022-09-09T00:07:59;95841.41;;;18.73;100.00
11676;BME280;5894;42.768;23.404;2022-09-09T00:10:33;95843.38;;;18.76;100.00
11676;BME280;5894;42.768;23.404;2022-09-09T00:13:14;95845.88;;;18.84;100.00
11676;BME280;5894;42.768;23.404;2022-09-09T00:15:51;95849.16;;;18.78;100.00
11676;BME280;5894;42.768;23.404;2022-09-09T00:18:24;95853.22;;;18.72;100.00
11676;BME280;5894;42.768;23.404;2022-09-09T00:20:58;95837.34;;;18.63;100.00
11676;BME280;5894;42.768;23.404;2022-09-09T00:23:29;95825.53;;;18.48;100.00
11676;BME280;5894;42.768;23.404;2022-09-09T00:26:03;95836.91;;;18.61;100.00
11676;BME280;5894;42.768;23.404;2022-09-09T00:28:36;95833.81;;;18.59;100.00
11676;BME280;5894;42.768;23.404;2022-09-09T00:31:12;95841.50;;;18.60;100.00
11676;BME280;5894;42.768;23.404;2022-09-09T00:33:40;95834.69;;;18.63;100.00
11676;BME280;5894;42.768;23.404;2022-09-09T00:36:12;95829.69;;;18.61;100.00
11676;BME280;5894;42.768;23.404;2022-09-09T00:38:43;95816.44;;;18.65;100.00
11676;BME280;5894;42.768;23.404;2022-09-09T00:41:18;95817.44;;;18.60;100.00
11676;BME280;5894;42.768;23.404;2022-09-09T00:43:55;95822.94;;;18.52;100.00
11676;BME280;5894;42.768;23.404;2022-09-09T00:46:41;95813.03;;;18.52;100.00
11676;BME280;5894;42.768;23.404;2022-09-09T00:49:21;95816.50;;;18.53;100.00
11676;BME280;5894;42.768;23.404;2022-09-09T00:51:56;95820.38;;;18.55;100.00
11676;BME280;5894;42.768;23.404;2022-09-09T00:54:33;95814.16;;;18.51;100.00
11676;BME280;5894;42.768;23.404;2022-09-09T00:57:25;95809.25;;;18.53;100.00
11676;BME280;5894;42.768;23.404;2022-09-09T00:59:59;95811.16;;;18.53;100.00
11676;BME280;5894;42.768;23.404;2022-09-09T01:02:34;95816.38;;;18.49;100.00
11676;BME280;5894;42.768;23.404;2022-09-09T01:05:10;95808.13;;;18.39;100.00
11676;BME280;5894;42.768;23.404;2022-09-09T01:07:40;95812.53;;;18.47;100.00
11676;BME280;5894;42.768;23.404;2022-09-09T01:10:17;95806.47;;;18.50;100.00
11676;BME280;5894;42.768;23.404;2022-09-09T01:12:51;95791.50;;;18.29;100.00
11676;BME280;5894;42.768;23.404;2022-09-09T01:15:22;95810.22;;;18.45;100.00
11676;BME280;5894;42.768;23.404;2022-09-09T01:17:58;95818.13;;;18.42;100.00
11676;BME280;5894;42.768;23.404;2022-09-09T01:20:31;95808.47;;;18.21;100.00
11676;BME280;5894;42.768;23.404;2022-09-09T01:23:28;95812.41;;;18.27;100.00
11676;BME280;5894;42.768;23.404;2022-09-09T01:26:19;95813.47;;;18.23;100.00
11676;BME280;5894;42.768;23.404;2022-09-09T01:28:50;95796.75;;;18.10;100.00
11676;BME280;5894;42.768;23.404;2022-09-09T01:31:23;95807.09;;;18.12;100.00
11676;BME280;5894;42.768;23.404;2022-09-09T01:33:53;95814.22;;;18.08;100.00
11676;BME280;5894;42.768;23.404;2022-09-09T01:36:31;95806.56;;;18.06;100.00
11676;BME280;5894;42.768;23.404;2022-09-09T01:39:00;95817.94;;;18.03;100.00
11676;BME280;5894;42.768;23.404;2022-09-09T01:41:29;95815.59;;;18.02;100.00
11676;BME280;5894;42.768;23.404;2022-09-09T01:44:03;95732.16;;;17.45;100.00
11676;BME280;5894;42.768;23.404;2022-09-09T01:46:32;95818.22;;;17.86;100.00
11676;BME280;5894;42.768;23.404;2022-09-09T01:49:02;95825.84;;;18.00;100.00
11676;BME280;5894;42.768;23.404;2022-09-09T01:51:30;95836.06;;;17.97;100.00
11676;BME280;5894;42.768;23.404;2022-09-09T01:54:02;95835.72;;;17.99;100.00
11676;BME280;5894;42.768;23.404;2022-09-09T01:56:38;95825.94;;;18.03;100.00
11676;BME280;5894;42.768;23.404;2022-09-09T01:59:18;95828.00;;;18.10;100.00
11676;BME280;5894;42.768;23.404;2022-09-09T02:01:58;95820.34;;;18.08;100.00
11676;BME280;5894;42.768;23.404;2022-09-09T02:04:37;95828.06;;;17.97;100.00
11676;BME280;5894;42.768;23.404;2022-09-09T02:07:19;95832.72;;;18.01;100.00
11676;BME280;5894;42.768;23.404;2022-09-09T02:09:54;95835.22;;;17.93;100.00
11676;BME280;5894;42.768;23.404;2022-09-09T02:12:26;95833.56;;;17.89;100.00
11676;BME280;5894;42.768;23.404;2022-09-09T02:15:02;95826.78;;;17.91;100.00
11676;BME280;5894;42.768;23.404;2022-09-09T02:17:38;95820.13;;;17.85;100.00
11676;BME280;5894;42.768;23.404;2022-09-09T02:20:13;95819.66;;;17.68;100.00
11676;BME280;5894;42.768;23.404;2022-09-09T02:22:53;95815.53;;;17.70;100.00
11676;BME280;5894;42.768;23.404;2022-09-09T02:25:24;95805.03;;;17.77;100.00
11676;BME280;5894;42.768;23.404;2022-09-09T02:27:58;95808.63;;;17.69;100.00
11676;BME280;5894;42.768;23.404;2022-09-09T02:30:28;95809.44;;;17.57;100.00
11676;BME280;5894;42.768;23.404;2022-09-09T02:32:59;95810.47;;;17.53;100.00
11676;BME280;5894;42.768;23.404;2022-09-09T02:35:41;95817.34;;;17.54;100.00
11676;BME280;5894;42.768;23.404;2022-09-09T02:38:12;95816.56;;;17.53;100.00
11676;BME280;5894;42.768;23.404;2022-09-09T02:40:45;95817.34;;;17.54;100.00
11676;BME280;5894;42.768;23.404;2022-09-09T02:43:15;95755.19;;;17.10;100.00
11676;BME280;5894;42.768;23.404;2022-09-09T02:45:49;95822.13;;;17.48;100.00
11676;BME280;5894;42.768;23.404;2022-09-09T02:48:22;95834.16;;;17.42;100.00
11676;BME280;5894;42.768;23.404;2022-09-09T02:50:56;95825.41;;;17.30;100.00
11676;BME280;5894;42.768;23.404;2022-09-09T02:53:38;95835.81;;;17.35;100.00
11676;BME280;5894;42.768;23.404;2022-09-09T02:56:10;95818.00;;;17.23;100.00
11676;BME280;5894;42.768;23.404;2022-09-09T02:58:44;95825.41;;;17.30;100.00
11676;BME280;5894;42.768;23.404;2022-09-09T03:01:12;95818.75;;;17.23;100.00
11676;BME280;5894;42.768;23.404;2022-09-09T03:03:39;95824.53;;;17.25;100.00
11676;BME280;5894;42.768;23.404;2022-09-09T03:06:10;95820.66;;;17.23;100.00
11676;BME280;5894;42.768;23.404;2022-09-09T03:08:38;95821.00;;;17.21;100.00
11676;BME280;5894;42.768;23.404;2022-09-09T03:11:08;95828.75;;;17.14;100.00
11676;BME280;5894;42.768;23.404;2022-09-09T03:13:36;95808.94;;;17.00;100.00
11676;BME280;5894;42.768;23.404;2022-09-09T03:16:06;95841.69;;;17.12;100.00
11676;BME280;5894;42.768;23.404;2022-09-09T03:18:38;95826.56;;;17.04;100.00
11676;BME280;5894;42.768;23.404;2022-09-09T03:21:05;95845.88;;;17.13;100.00
11676;BME280;5894;42.768;23.404;2022-09-09T03:23:35;95837.53;;;17.15;100.00
11676;BME280;5894;42.768;23.404;2022-09-09T03:26:03;95813.38;;;16.96;100.00
11676;BME280;5894;42.768;23.404;2022-09-09T03:28:38;95828.75;;;17.14;100.00
11676;BME280;5894;42.768;23.404;2022-09-09T03:31:06;95826.41;;;17.25;100.00
11676;BME280;5894;42.768;23.404;2022-09-09T03:33:39;95833.75;;;17.28;100.00
11676;BME280;5894;42.768;23.404;2022-09-09T03:36:08;95827.09;;;17.22;100.00
11676;BME280;5894;42.768;23.404;2022-09-09T03:38:36;95831.41;;;17.27;100.00
11676;BME280;5894;42.768;23.404;2022-09-09T03:41:03;95831.31;;;17.23;100.00
11676;BME280;5894;42.768;23.404;2022-09-09T03:43:33;95835.75;;;17.19;100.00
11676;BME280;5894;42.768;23.404;2022-09-09T03:46:00;95836.34;;;17.12;100.00
11676;BME280;5894;42.768;23.404;2022-09-09T03:48:29;95817.91;;;16.95;100.00
11676;BME280;5894;42.768;23.404;2022-09-09T03:50:58;95816.94;;;17.00;100.00
11676;BME280;5894;42.768;23.404;2022-09-09T03:53:27;95827.34;;;17.05;100.00
11676;BME280;5894;42.768;23.404;2022-09-09T03:55:56;95834.66;;;17.08;100.00
11676;BME280;5894;42.768;23.404;2022-09-09T03:58:26;95846.91;;;16.97;100.00
11676;BME280;5894;42.768;23.404;2022-09-09T04:01:01;95804.28;;;16.72;100.00
11676;BME280;5894;42.768;23.404;2022-09-09T04:03:30;95845.66;;;16.94;100.00
11676;BME280;5894;42.768;23.404;2022-09-09T04:05:59;95822.41;;;16.79;100.00
11676;BME280;5894;42.768;23.404;2022-09-09T04:08:29;95847.13;;;16.79;100.00
11676;BME280;5894;42.768;23.404;2022-09-09T04:10:58;95839.69;;;16.85;100.00
11676;BME280;5894;42.768;23.404;2022-09-09T04:13:28;95847.91;;;16.92;100.00
11676;BME280;5894;42.768;23.404;2022-09-09T04:15:58;95841.91;;;16.95;100.00
11676;BME280;5894;42.768;23.404;2022-09-09T04:18:26;95841.25;;;16.98;100.00
11676;BME280;5894;42.768;23.404;2022-09-09T04:20:55;95804.75;;;16.74;100.00
11676;BME280;5894;42.768;23.404;2022-09-09T04:23:25;95837.47;;;16.87;100.00
11676;BME280;5894;42.768;23.404;2022-09-09T04:25:57;95803.88;;;16.70;100.00
11676;BME280;5894;42.768;23.404;2022-09-09T04:28:27;95797.19;;;16.64;100.00
11676;BME280;5894;42.768;23.404;2022-09-09T04:30:54;95817.41;;;16.77;100.00
11676;BME280;5894;42.768;23.404;2022-09-09T04:33:23;95830.59;;;16.86;100.00
11676;BME280;5894;42.768;23.404;2022-09-09T04:35:52;95829.47;;;16.87;100.00
11676;BME280;5894;42.768;23.404;2022-09-09T04:38:24;95823.16;;;16.92;100.00
11676;BME280;5894;42.768;23.404;2022-09-09T04:40:52;95819.38;;;16.93;100.00
11676;BME280;5894;42.768;23.404;2022-09-09T04:43:21;95846.56;;;16.98;100.00
11676;BME280;5894;42.768;23.404;2022-09-09T04:45:50;95863.53;;;16.94;100.00
11676;BME280;5894;42.768;23.404;2022-09-09T04:48:20;95860.09;;;17.05;100.00
11676;BME280;5894;42.768;23.404;2022-09-09T04:50:56;95857.56;;;17.09;100.00
11676;BME280;5894;42.768;23.404;2022-09-09T04:53:25;95848.13;;;17.11;100.00
11676;BME280;5894;42.768;23.404;2022-09-09T04:55:53;95842.78;;;17.11;100.00
11676;BME280;5894;42.768;23.404;2022-09-09T04:58:20;95841.56;;;17.09;100.00
11676;BME280;5894;42.768;23.404;2022-09-09T05:00:49;95839.34;;;17.11;100.00
11676;BME280;5894;42.768;23.404;2022-09-09T05:03:17;95832.53;;;17.13;100.00
11676;BME280;5894;42.768;23.404;2022-09-09T05:05:45;95838.09;;;17.20;100.00
11676;BME280;5894;42.768;23.404;2022-09-09T05:08:11;95833.84;;;17.32;100.00
11676;BME280;5894;42.768;23.404;2022-09-09T05:10:40;95823.63;;;17.34;100.00
11676;BME280;5894;42.768;23.404;2022-09-09T05:13:08;95800.69;;;17.17;100.00
11676;BME280;5894;42.768;23.404;2022-09-09T05:15:35;95829.97;;;17.29;100.00
11676;BME280;5894;42.768;23.404;2022-09-09T05:18:03;95834.19;;;17.30;100.00
11676;BME280;5894;42.768;23.404;2022-09-09T05:20:31;95837.50;;;17.39;100.00
11676;BME280;5894;42.768;23.404;2022-09-09T05:22:58;95830.38;;;17.43;100.00
11676;BME280;5894;42.768;23.404;2022-09-09T05:25:28;95827.34;;;17.45;100.00
11676;BME280;5894;42.768;23.404;2022-09-09T05:27:58;95799.09;;;17.28;100.00
11676;BME280;5894;42.768;23.404;2022-09-09T05:30:25;95828.56;;;17.47;100.00
11676;BME280;5894;42.768;23.404;2022-09-09T05:32:55;95831.69;;;17.49;100.00
11676;BME280;5894;42.768;23.404;2022-09-09T05:35:22;95825.34;;;17.54;100.00
11676;BME280;5894;42.768;23.404;2022-09-09T05:37:49;95816.44;;;17.62;100.00
11676;BME280;5894;42.768;23.404;2022-09-09T05:40:16;95793.88;;;17.59;100.00
11676;BME280;5894;42.768;23.404;2022-09-09T05:42:43;95786.25;;;17.46;100.00
11676;BME280;5894;42.768;23.404;2022-09-09T05:45:11;95824.50;;;17.78;100.00
11676;BME280;5894;42.768;23.404;2022-09-09T05:47:38;95822.03;;;17.85;100.00
11676;BME280;5894;42.768;23.404;2022-09-09T05:50:08;95818.22;;;17.86;100.00
11676;BME280;5894;42.768;23.404;2022-09-09T05:52:36;95830.66;;;17.94;100.00
11676;BME280;5894;42.768;23.404;2022-09-09T05:55:08;95830.38;;;17.99;100.00
11676;BME280;5894;42.768;23.404;2022-09-09T05:57:35;95818.69;;;18.04;100.00
11676;BME280;5894;42.768;23.404;2022-09-09T06:00:05;95824.22;;;18.11;100.00
11676;BME280;5894;42.768;23.404;2022-09-09T06:02:40;95822.88;;;18.17;100.00
11676;BME280;5894;42.768;23.404;2022-09-09T06:05:10;95833.72;;;18.24;100.00
11676;BME280;5894;42.768;23.404;2022-09-09T06:07:37;95832.31;;;18.30;100.00
11676;BME280;5894;42.768;23.404;2022-09-09T06:10:08;95842.84;;;18.39;100.00
11676;BME280;5894;42.768;23.404;2022-09-09T06:12:35;95835.78;;;18.46;100.00
11676;BME280;5894;42.768;23.404;2022-09-09T06:15:03;95838.19;;;18.51;100.00
11676;BME280;5894;42.768;23.404;2022-09-09T06:17:31;95840.38;;;18.61;100.00
11676;BME280;5894;42.768;23.404;2022-09-09T06:19:59;95845.47;;;18.66;100.00
11676;BME280;5894;42.768;23.404;2022-09-09T06:22:26;95853.63;;;18.74;100.00
11676;BME280;5894;42.768;23.404;2022-09-09T06:24:53;95848.47;;;18.81;100.00
11676;BME280;5894;42.768;23.404;2022-09-09T06:27:21;95850.97;;;18.89;100.00
11676;BME280;5894;42.768;23.404;2022-09-09T06:29:48;95852.94;;;18.92;100.00
11676;BME280;5894;42.768;23.404;2022-09-09T06:32:15;95855.00;;;18.99;100.00
11676;BME280;5894;42.768;23.404;2022-09-09T06:34:43;95854.38;;;19.05;100.00
11676;BME280;5894;42.768;23.404;2022-09-09T06:37:12;95850.03;;;19.17;100.00
11676;BME280;5894;42.768;23.404;2022-09-09T06:39:46;95839.34;;;19.17;100.00
11676;BME280;5894;42.768;23.404;2022-09-09T06:42:15;95838.13;;;19.30;100.00
11676;BME280;5894;42.768;23.404;2022-09-09T06:44:48;95842.41;;;19.34;100.00
11676;BME280;5894;42.768;23.404;2022-09-09T06:47:25;95833.38;;;19.42;100.00
11676;BME280;5894;42.768;23.404;2022-09-09T06:49:54;95826.56;;;19.45;100.00
11676;BME280;5894;42.768;23.404;2022-09-09T06:52:23;95829.41;;;19.52;100.00
11676;BME280;5894;42.768;23.404;2022-09-09T06:54:50;95836.81;;;19.59;100.00
11676;BME280;5894;42.768;23.404;2022-09-09T06:57:17;95843.09;;;19.66;100.00
11676;BME280;5894;42.768;23.404;2022-09-09T06:59:44;95846.66;;;19.74;100.00
11676;BME280;5894;42.768;23.404;2022-09-09T07:02:11;95850.63;;;19.80;100.00
11676;BME280;5894;42.768;23.404;2022-09-09T07:04:39;95848.06;;;19.87;100.00
11676;BME280;5894;42.768;23.404;2022-09-09T07:07:05;95832.13;;;19.94;100.00
11676;BME280;5894;42.768;23.404;2022-09-09T07:09:34;95844.16;;;20.04;100.00
11676;BME280;5894;42.768;23.404;2022-09-09T07:12:01;95829.19;;;19.99;100.00
11676;BME280;5894;42.768;23.404;2022-09-09T07:14:33;95846.78;;;20.20;100.00
11676;BME280;5894;42.768;23.404;2022-09-09T07:17:04;95841.19;;;20.28;100.00
11676;BME280;5894;42.768;23.404;2022-09-09T07:19:36;95839.41;;;20.36;100.00
11676;BME280;5894;42.768;23.404;2022-09-09T07:22:04;95838.03;;;20.45;100.00
11676;BME280;5894;42.768;23.404;2022-09-09T07:24:32;95839.78;;;20.57;100.00
11676;BME280;5894;42.768;23.404;2022-09-09T07:27:01;95839.06;;;20.60;100.00
11676;BME280;5894;42.768;23.404;2022-09-09T07:29:29;95843.47;;;20.72;100.00
11676;BME280;5894;42.768;23.404;2022-09-09T07:31:56;95839.41;;;20.81;100.00
11676;BME280;5894;42.768;23.404;2022-09-09T07:34:29;95839.91;;;20.91;100.00
11676;BME280;5894;42.768;23.404;2022-09-09T07:36:56;95832.75;;;20.98;100.00
11676;BME280;5894;42.768;23.404;2022-09-09T07:39:24;95827.44;;;21.02;100.00
11676;BME280;5894;42.768;23.404;2022-09-09T07:41:52;95828.06;;;21.18;100.00
11676;BME280;5894;42.768;23.404;2022-09-09T07:44:24;95828.22;;;21.29;99.82
11676;BME280;5894;42.768;23.404;2022-09-09T07:47:02;95834.13;;;21.38;100.00
11676;BME280;5894;42.768;23.404;2022-09-09T07:49:35;95840.75;;;21.47;100.00
11676;BME280;5894;42.768;23.404;2022-09-09T07:52:05;95843.50;;;21.54;100.00
11676;BME280;5894;42.768;23.404;2022-09-09T07:54:34;95851.28;;;21.63;98.68
11676;BME280;5894;42.768;23.404;2022-09-09T07:57:04;95845.19;;;21.66;99.49
11676;BME280;5894;42.768;23.404;2022-09-09T07:59:35;95840.44;;;21.86;96.47
11676;BME280;5894;42.768;23.404;2022-09-09T08:02:02;95816.59;;;21.81;97.93
11676;BME280;5894;42.768;23.404;2022-09-09T08:04:32;95835.69;;;22.06;96.83
11676;BME280;5894;42.768;23.404;2022-09-09T08:07:01;95830.78;;;22.15;98.46
11676;BME280;5894;42.768;23.404;2022-09-09T08:09:32;95825.88;;;22.20;98.04
11676;BME280;5894;42.768;23.404;2022-09-09T08:12:09;95832.50;;;22.33;95.93
11676;BME280;5894;42.768;23.404;2022-09-09T08:14:40;95839.94;;;22.47;89.57
11676;BME280;5894;42.768;23.404;2022-09-09T08:17:10;95835.06;;;22.60;93.43
11676;BME280;5894;42.768;23.404;2022-09-09T08:19:38;95843.19;;;22.70;86.58
11676;BME280;5894;42.768;23.404;2022-09-09T08:22:10;95841.41;;;22.82;86.93
11676;BME280;5894;42.768;23.404;2022-09-09T08:24:39;95837.66;;;22.93;93.97
11676;BME280;5894;42.768;23.404;2022-09-09T08:27:07;95819.13;;;22.85;97.23
11676;BME280;5894;42.768;23.404;2022-09-09T08:29:36;95824.22;;;22.97;94.23
11676;BME280;5894;42.768;23.404;2022-09-09T08:32:05;95837.84;;;23.25;92.57
11676;BME280;5894;42.768;23.404;2022-09-09T08:34:34;95830.97;;;23.35;87.65
11676;BME280;5894;42.768;23.404;2022-09-09T08:37:06;95823.75;;;23.46;93.75
11676;BME280;5894;42.768;23.404;2022-09-09T08:39:37;95825.72;;;23.56;87.92
11676;BME280;5894;42.768;23.404;2022-09-09T08:45:24;95815.03;;;23.81;90.31
11676;BME280;5894;42.768;23.404;2022-09-09T08:48:09;95827.03;;;23.98;88.75
11676;BME280;5894;42.768;23.404;2022-09-09T08:50:39;95826.28;;;24.08;88.14
11676;BME280;5894;42.768;23.404;2022-09-09T08:53:16;95815.91;;;24.21;89.95
11676;BME280;5894;42.768;23.404;2022-09-09T08:55:48;95811.34;;;24.28;86.52
11676;BME280;5894;42.768;23.404;2022-09-09T08:58:20;95803.25;;;24.39;89.66
11676;BME280;5894;42.768;23.404;2022-09-09T09:01:16;95800.19;;;24.55;90.07
11676;BME280;5894;42.768;23.404;2022-09-09T09:03:57;95800.56;;;24.71;100.00
11676;BME280;5894;42.768;23.404;2022-09-09T09:06:39;95802.09;;;24.82;99.42
11676;BME280;5894;42.768;23.404;2022-09-09T09:09:17;95801.72;;;24.95;96.46
11676;BME280;5894;42.768;23.404;2022-09-09T09:11:50;95811.34;;;25.06;87.67
11676;BME280;5894;42.768;23.404;2022-09-09T09:14:20;95808.63;;;25.17;92.75
11676;BME280;5894;42.768;23.404;2022-09-09T09:16:53;95826.31;;;25.25;97.41
11676;BME280;5894;42.768;23.404;2022-09-09T09:19:23;95816.28;;;25.36;95.73
11676;BME280;5894;42.768;23.404;2022-09-09T09:21:59;95813.53;;;25.50;90.76
11676;BME280;5894;42.768;23.404;2022-09-09T09:24:34;95810.06;;;25.61;88.06
11676;BME280;5894;42.768;23.404;2022-09-09T09:27:12;95815.41;;;25.75;79.76
11676;BME280;5894;42.768;23.404;2022-09-09T09:29:44;95806.09;;;25.79;72.03
11676;BME280;5894;42.768;23.404;2022-09-09T09:32:18;95788.34;;;25.82;77.03
11676;BME280;5894;42.768;23.404;2022-09-09T09:34:51;95783.66;;;25.89;92.34
11676;BME280;5894;42.768;23.404;2022-09-09T09:37:26;95787.91;;;25.90;85.10
11676;BME280;5894;42.768;23.404;2022-09-09T09:39:54;95794.03;;;26.02;89.27
11676;BME280;5894;42.768;23.404;2022-09-09T09:42:21;95795.13;;;26.15;91.63
11676;BME280;5894;42.768;23.404;2022-09-09T09:44:50;95794.69;;;26.16;78.28
11676;BME280;5894;42.768;23.404;2022-09-09T09:47:21;95792.34;;;26.25;88.41
11676;BME280;5894;42.768;23.404;2022-09-09T09:50:15;95784.97;;;26.37;91.86
11676;BME280;5894;42.768;23.404;2022-09-09T09:52:53;95789.94;;;26.42;87.70
11676;BME280;5894;42.768;23.404;2022-09-09T09:55:21;95782.53;;;26.49;75.12
11676;BME280;5894;42.768;23.404;2022-09-09T09:57:50;95783.66;;;26.52;75.52
11676;BME280;5894;42.768;23.404;2022-09-09T10:00:18;95775.84;;;26.61;88.01
11676;BME280;5894;42.768;23.404;2022-09-09T10:02:59;95769.25;;;26.65;84.56
11676;BME280;5894;42.768;23.404;2022-09-09T10:05:35;95744.25;;;26.51;81.45
11676;BME280;5894;42.768;23.404;2022-09-09T10:08:11;95783.09;;;26.75;80.54
11676;BME280;5894;42.768;23.404;2022-09-09T10:10:49;95777.22;;;26.80;80.09
11676;BME280;5894;42.768;23.404;2022-09-09T10:13:20;95762.63;;;26.70;81.08
11676;BME280;5894;42.768;23.404;2022-09-09T10:15:59;95771.78;;;26.87;81.03
11676;BME280;5894;42.768;23.404;2022-09-09T10:18:40;95786.47;;;26.86;76.74
11676;BME280;5894;42.768;23.404;2022-09-09T10:21:20;95791.09;;;26.89;73.92
11676;BME280;5894;42.768;23.404;2022-09-09T10:24:03;95789.91;;;26.90;74.81
11676;BME280;5894;42.768;23.404;2022-09-09T10:26:38;95796.13;;;26.87;72.95
11676;BME280;5894;42.768;23.404;2022-09-09T10:29:27;95799.66;;;26.80;71.93
11676;BME280;5894;42.768;23.404;2022-09-09T10:32:10;95796.59;;;26.78;71.73
11676;BME280;5894;42.768;23.404;2022-09-09T10:34:55;95791.22;;;26.75;72.53
11676;BME280;5894;42.768;23.404;2022-09-09T10:37:36;95789.28;;;26.72;72.74
11676;BME280;5894;42.768;23.404;2022-09-09T10:40:23;95794.75;;;26.68;72.63
11676;BME280;5894;42.768;23.404;2022-09-09T10:43:03;95790.16;;;26.61;72.93
11676;BME280;5894;42.768;23.404;2022-09-09T10:45:41;95791.69;;;26.62;73.27
11676;BME280;5894;42.768;23.404;2022-09-09T10:51:19;95771.00;;;26.38;74.67
11676;BME280;5894;42.768;23.404;2022-09-09T10:53:57;95801.50;;;26.42;70.67
11676;BME280;5894;42.768;23.404;2022-09-09T10:56:29;95794.94;;;26.43;70.33
11676;BME280;5894;42.768;23.404;2022-09-09T10:58:59;95796.50;;;26.37;70.65
11676;BME280;5894;42.768;23.404;2022-09-09T11:01:30;95766.56;;;26.10;70.91
11676;BME280;5894;42.768;23.404;2022-09-09T11:04:01;95794.25;;;26.32;73.65
11676;BME280;5894;42.768;23.404;2022-09-09T11:06:33;95772.66;;;26.21;73.28
11676;BME280;5894;42.768;23.404;2022-09-09T11:09:04;95791.19;;;26.26;73.59
11676;BME280;5894;42.768;23.404;2022-09-09T11:11:36;95789.66;;;26.22;71.61
11676;BME280;5894;42.768;23.404;2022-09-09T11:14:10;95791.56;;;26.25;72.03
11676;BME280;5894;42.768;23.404;2022-09-09T11:16:47;95787.31;;;26.27;71.41
11676;BME280;5894;42.768;23.404;2022-09-09T11:19:21;95786.16;;;26.28;73.63
11676;BME280;5894;42.768;23.404;2022-09-09T11:21:54;95777.25;;;26.31;72.95
11676;BME280;5894;42.768;23.404;2022-09-09T11:24:27;95769.16;;;26.28;73.44
11676;BME280;5894;42.768;23.404;2022-09-09T11:27:02;95748.72;;;26.20;73.36
11676;BME280;5894;42.768;23.404;2022-09-09T11:29:44;95737.19;;;26.16;70.72
11676;BME280;5894;42.768;23.404;2022-09-09T11:32:34;95761.41;;;26.34;67.28
11676;BME280;5894;42.768;23.404;2022-09-09T11:35:20;95767.59;;;26.30;68.14
11676;BME280;5894;42.768;23.404;2022-09-09T11:38:14;95759.50;;;26.30;71.60
11676;BME280;5894;42.768;23.404;2022-09-09T11:40:45;95752.16;;;26.31;73.05
11676;BME280;5894;42.768;23.404;2022-09-09T11:43:15;95752.47;;;26.40;73.12
11676;BME280;5894;42.768;23.404;2022-09-09T11:45:51;95739.25;;;26.49;73.42
11676;BME280;5894;42.768;23.404;2022-09-09T11:48:28;95721.44;;;26.55;69.66
11676;BME280;5894;42.768;23.404;2022-09-09T11:51:01;95721.47;;;26.52;68.99
11676;BME280;5894;42.768;23.404;2022-09-09T11:53:30;95727.63;;;26.52;68.52
11676;BME280;5894;42.768;23.404;2022-09-09T11:56:07;95716.81;;;26.52;69.44
11676;BME280;5894;42.768;23.404;2022-09-09T11:58:41;95716.13;;;26.45;69.65
11676;BME280;5894;42.768;23.404;2022-09-09T12:01:25;95704.16;;;26.46;70.16
11676;BME280;5894;42.768;23.404;2022-09-09T12:04:09;95706.78;;;26.49;69.58
11676;BME280;5894;42.768;23.404;2022-09-09T12:06:42;95704.16;;;26.46;72.11
11676;BME280;5894;42.768;23.404;2022-09-09T12:09:18;95717.13;;;26.61;72.23
11676;BME280;5894;42.768;23.404;2022-09-09T12:11:48;95710.16;;;26.64;71.21
11676;BME280;5894;42.768;23.404;2022-09-09T12:14:20;95707.81;;;26.66;74.83
11676;BME280;5894;42.768;23.404;2022-09-09T12:16:48;95700.78;;;26.72;74.58
11676;BME280;5894;42.768;23.404;2022-09-09T12:19:18;95705.44;;;26.72;73.49
11676;BME280;5894;42.768;23.404;2022-09-09T12:21:51;95704.53;;;26.85;71.82
11676;BME280;5894;42.768;23.404;2022-09-09T12:24:27;95705.59;;;26.91;69.64
11676;BME280;5894;42.768;23.404;2022-09-09T12:27:01;95692.53;;;26.86;69.42
11676;BME280;5894;42.768;23.404;2022-09-09T12:29:38;95691.38;;;26.87;71.38
11676;BME280;5894;42.768;23.404;2022-09-09T12:32:10;95685.59;;;26.82;70.68
11676;BME280;5894;42.768;23.404;2022-09-09T12:34:40;95692.16;;;26.84;71.66
11676;BME280;5894;42.768;23.404;2022-09-09T12:37:17;95687.91;;;26.83;71.16
11676;BME280;5894;42.768;23.404;2022-09-09T12:39:52;95686.38;;;26.82;72.00
11676;BME280;5894;42.768;23.404;2022-09-09T12:42:23;95688.72;;;26.80;71.82
11676;BME280;5894;42.768;23.404;2022-09-09T12:44:51;95673.31;;;26.77;72.37
11676;BME280;5894;42.768;23.404;2022-09-09T12:47:20;95671.72;;;26.80;74.05
11676;BME280;5894;42.768;23.404;2022-09-09T12:49:49;95662.78;;;26.83;74.04
11676;BME280;5894;42.768;23.404;2022-09-09T12:52:22;95661.59;;;26.87;75.93
11676;BME280;5894;42.768;23.404;2022-09-09T12:54:52;95660.00;;;26.93;73.33
11676;BME280;5894;42.768;23.404;2022-09-09T12:57:23;95655.00;;;26.92;72.02
11676;BME280;5894;42.768;23.404;2022-09-09T12:59:51;95655.00;;;26.88;73.22
11676;BME280;5894;42.768;23.404;2022-09-09T13:02:20;95656.13;;;26.91;76.05
11676;BME280;5894;42.768;23.404;2022-09-09T13:04:48;95652.25;;;26.95;76.42
11676;BME280;5894;42.768;23.404;2022-09-09T13:07:16;95654.50;;;27.00;77.64
11676;BME280;5894;42.768;23.404;2022-09-09T13:09:43;95645.56;;;27.03;78.49
11676;BME280;5894;42.768;23.404;2022-09-09T13:12:14;95637.50;;;27.00;80.09
11676;BME280;5894;42.768;23.404;2022-09-09T13:14:45;95652.44;;;27.12;80.21
11676;BME280;5894;42.768;23.404;2022-09-09T13:17:20;95641.19;;;27.13;78.84
11676;BME280;5894;42.768;23.404;2022-09-09T13:19:48;95645.41;;;27.18;79.96
11676;BME280;5894;42.768;23.404;2022-09-09T13:22:23;95635.28;;;27.22;79.20
11676;BME280;5894;42.768;23.404;2022-09-09T13:25:05;95637.16;;;27.28;78.09
11676;BME280;5894;42.768;23.404;2022-09-09T13:27:34;95631.63;;;27.35;75.13